Time;durP1;ratioP1;P1;durP2;ratioP2;P2;SDS_P1;SDS_P2;PMS_P1;PMS_P2;Temp;Humidity;BMP_temperature;BMP_pressure;BME280_temperature;BME280_humidity;BME280_pressure;Samples;Min_cycle;Max_cycle;Signal;HPM_P1;HPM_P2
2023/07/30 00:00:52;;;;;;;8.70;4.77;;;;;;;17.71;100.00;99268.97;4256642;28;23968;-73
2023/07/30 00:03:19;;;;;;;11.10;4.97;;;;;;;17.67;100.00;99275.94;4240169;28;20242;-73
2023/07/30 00:05:55;;;;;;;8.70;4.77;;;;;;;17.78;100.00;99277.13;4231636;28;20302;-72
2023/07/30 00:08:22;;;;;;;6.20;4.77;;;;;;;17.70;100.00;99275.53;4247384;28;22758;-73
2023/07/30 00:10:49;;;;;;;8.63;5.00;;;;;;;17.77;100.00;99277.34;4215393;28;20235;-74
2023/07/30 00:13:16;;;;;;;8.10;5.47;;;;;;;17.81;100.00;99275.84;4234808;28;20226;-72
2023/07/30 00:15:43;;;;;;;11.13;4.97;;;;;;;17.78;100.00;99282.59;4236185;28;21532;-72
2023/07/30 00:18:10;;;;;;;9.73;5.50;;;;;;;17.77;100.00;99280.09;4210935;28;20546;-72
2023/07/30 00:20:36;;;;;;;9.07;5.47;;;;;;;17.76;100.00;99281.97;4223249;28;20232;-71
2023/07/30 00:23:03;;;;;;;9.67;5.10;;;;;;;17.81;100.00;99282.16;4237155;28;20413;-72
2023/07/30 00:25:29;;;;;;;8.00;4.93;;;;;;;17.85;100.00;99285.28;4224563;28;20235;-74
2023/07/30 00:27:56;;;;;;;7.30;5.43;;;;;;;17.82;100.00;99286.59;4239165;28;23494;-72
2023/07/30 00:30:23;;;;;;;9.13;5.23;;;;;;;17.87;100.00;99294.09;4233141;28;20233;-75
2023/07/30 00:32:49;;;;;;;8.40;5.20;;;;;;;17.93;100.00;99300.59;4232381;28;21443;-74
2023/07/30 00:35:16;;;;;;;7.27;4.80;;;;;;;17.84;100.00;99305.50;4248295;28;20236;-72
2023/07/30 00:37:43;;;;;;;9.90;4.90;;;;;;;17.92;100.00;99310.72;4232066;28;22458;-73
2023/07/30 00:40:10;;;;;;;9.47;4.47;;;;;;;17.88;100.00;99309.47;4227683;28;21224;-74
2023/07/30 00:42:36;;;;;;;8.53;4.93;;;;;;;17.84;100.00;99309.06;4235581;28;20278;-72
2023/07/30 00:45:04;;;;;;;9.37;4.10;;;;;;;17.85;100.00;99309.94;4255954;28;20397;-72
2023/07/30 00:47:31;;;;;;;7.70;4.27;;;;;;;17.79;100.00;99313.56;4234862;28;20226;-70
2023/07/30 00:49:59;;;;;;;6.30;4.43;;;;;;;17.85;100.00;99313.50;4237692;28;20226;-70
2023/07/30 00:52:26;;;;;;;7.43;4.27;;;;;;;17.83;100.00;99318.34;4228529;28;20473;-70
2023/07/30 00:54:54;;;;;;;8.43;4.57;;;;;;;17.71;100.00;99312.75;4219617;28;21926;-70
2023/07/30 00:57:21;;;;;;;6.70;3.73;;;;;;;17.77;100.00;99312.94;4244149;28;20380;-69
2023/07/30 00:59:48;;;;;;;6.03;3.60;;;;;;;17.76;100.00;99317.56;4235939;28;20235;-70
2023/07/30 01:02:14;;;;;;;7.40;3.60;;;;;;;17.72;100.00;99324.56;4239717;28;20235;-70
2023/07/30 01:04:42;;;;;;;5.27;3.33;;;;;;;17.75;100.00;99326.81;4249913;28;20239;-69
2023/07/30 01:07:09;;;;;;;5.57;3.67;;;;;;;17.71;100.00;99317.41;4221042;28;20235;-71
2023/07/30 01:09:36;;;;;;;6.63;3.70;;;;;;;17.72;100.00;99324.56;4228770;28;20234;-74
2023/07/30 01:12:03;;;;;;;5.93;3.70;;;;;;;17.66;100.00;99320.78;4225664;28;20419;-71
2023/07/30 01:14:30;;;;;;;5.67;3.63;;;;;;;17.66;100.00;99319.97;4245861;28;21396;-72
2023/07/30 01:16:59;;;;;;;5.77;3.80;;;;;;;17.62;100.00;99311.38;4224286;28;23114;-73
2023/07/30 01:19:25;;;;;;;6.67;3.63;;;;;;;17.60;100.00;99318.94;4210149;28;23268;-69
2023/07/30 01:21:52;;;;;;;6.87;3.97;;;;;;;17.60;100.00;99320.88;4228447;28;20243;-70
2023/07/30 01:24:18;;;;;;;5.43;3.70;;;;;;;17.68;100.00;99328.78;4256672;28;20238;-73
2023/07/30 01:26:51;;;;;;;5.00;3.77;;;;;;;17.68;100.00;99324.16;4222793;28;23740;-71
2023/07/30 01:29:23;;;;;;;8.97;3.77;;;;;;;17.66;100.00;99328.19;4221042;28;20302;-71
2023/07/30 01:31:59;;;;;;;8.07;4.03;;;;;;;17.65;100.00;99324.59;4235484;28;20230;-73
2023/07/30 01:34:27;;;;;;;6.77;3.70;;;;;;;17.65;100.00;99324.59;4237891;28;21335;-69
2023/07/30 01:36:54;;;;;;;6.57;4.00;;;;;;;17.62;100.00;99322.31;4229032;28;22167;-70
2023/07/30 01:39:23;;;;;;;5.33;3.33;;;;;;;17.50;100.00;99315.84;4240408;28;21227;-69
2023/07/30 01:41:50;;;;;;;8.67;3.70;;;;;;;17.43;100.00;99321.38;4223505;28;22150;-70
2023/07/30 01:44:16;;;;;;;10.93;4.17;;;;;;;17.43;100.00;99326.84;4227108;28;20239;-70
2023/07/30 01:46:43;;;;;;;7.17;3.37;;;;;;;17.48;100.00;99329.75;4245658;28;20964;-71
2023/07/30 01:49:09;;;;;;;7.13;4.17;;;;;;;17.48;100.00;99318.81;4234202;28;20315;-69
2023/07/30 01:51:36;;;;;;;8.00;3.67;;;;;;;17.45;100.00;99316.50;4242884;28;20326;-69
2023/07/30 01:54:03;;;;;;;4.93;3.53;;;;;;;17.56;100.00;99321.28;4247534;28;20235;-70
2023/07/30 01:56:29;;;;;;;5.30;3.23;;;;;;;17.60;100.00;99324.41;4255258;28;22174;-70
2023/07/30 01:58:56;;;;;;;7.10;4.50;;;;;;;17.58;100.00;99330.13;4250621;28;20230;-71
2023/07/30 02:01:22;;;;;;;5.80;4.10;;;;;;;17.61;100.00;99320.63;4241516;28;20243;-70
2023/07/30 02:03:49;;;;;;;8.03;4.70;;;;;;;17.50;100.00;99327.66;4236519;28;20242;-70
2023/07/30 02:06:16;;;;;;;5.83;3.93;;;;;;;17.42;100.00;99338.84;4219046;28;20228;-71
2023/07/30 02:08:42;;;;;;;7.43;4.53;;;;;;;17.34;100.00;99330.91;4234159;28;20290;-71
2023/07/30 02:11:09;;;;;;;9.60;5.07;;;;;;;17.27;100.00;99339.13;4255519;28;20423;-73
2023/07/30 02:13:35;;;;;;;7.03;5.00;;;;;;;17.37;100.00;99344.97;4221201;28;20318;-70
2023/07/30 02:16:02;;;;;;;7.23;4.90;;;;;;;17.26;100.00;99345.66;4238267;28;20235;-70
2023/07/30 02:18:28;;;;;;;14.33;5.83;;;;;;;17.20;100.00;99346.53;4218285;28;22010;-71
2023/07/30 02:20:55;;;;;;;7.30;5.47;;;;;;;17.21;100.00;99342.75;4240392;28;20226;-71
2023/07/30 02:23:22;;;;;;;11.27;6.23;;;;;;;17.12;100.00;99344.91;4233842;28;20791;-73
2023/07/30 02:25:48;;;;;;;12.07;7.23;;;;;;;17.06;100.00;99349.34;4245050;28;20281;-72
2023/07/30 02:28:15;;;;;;;10.80;7.13;;;;;;;17.04;100.00;99351.44;4231522;28;20316;-72
2023/07/30 02:30:41;;;;;;;8.47;6.77;;;;;;;17.09;100.00;99351.66;4230571;28;21120;-69
2023/07/30 02:33:08;;;;;;;13.30;7.60;;;;;;;17.01;100.00;99360.09;4232500;28;20266;-71
2023/07/30 02:35:34;;;;;;;10.37;7.30;;;;;;;17.02;100.00;99369.13;4248548;28;20231;-72
2023/07/30 02:38:01;;;;;;;14.80;7.90;;;;;;;16.99;100.00;99359.47;4224817;28;20370;-70
2023/07/30 02:40:28;;;;;;;12.23;8.17;;;;;;;17.08;100.00;99369.09;4235476;28;22835;-69
2023/07/30 02:42:54;;;;;;;10.27;7.53;;;;;;;17.08;100.00;99357.31;4244317;28;20317;-72
2023/07/30 02:45:21;;;;;;;15.50;7.73;;;;;;;17.07;100.00;99359.22;4245219;28;20240;-69
2023/07/30 02:47:48;;;;;;;22.70;8.37;;;;;;;17.05;100.00;99363.22;4229528;28;20241;-70
2023/07/30 02:50:14;;;;;;;13.87;8.27;;;;;;;17.05;100.00;99368.69;4238166;28;20245;-69
2023/07/30 02:52:42;;;;;;;17.63;8.83;;;;;;;17.03;100.00;99368.88;4243290;28;20231;-69
2023/07/30 02:55:09;;;;;;;11.10;7.77;;;;;;;17.03;100.00;99362.59;4236630;28;23035;-70
2023/07/30 02:57:36;;;;;;;11.77;8.13;;;;;;;17.10;100.00;99366.16;4241337;28;21160;-71
2023/07/30 03:00:04;;;;;;;14.37;7.67;;;;;;;17.10;100.00;99357.94;4242668;28;21167;-70
2023/07/30 03:02:30;;;;;;;13.70;7.80;;;;;;;17.05;100.00;99352.28;4229822;28;20243;-68
2023/07/30 03:04:57;;;;;;;12.53;7.73;;;;;;;17.02;100.00;99358.19;4229743;28;20234;-70
2023/07/30 03:07:25;;;;;;;15.57;8.23;;;;;;;17.04;100.00;99362.38;4221979;28;20242;-68
2023/07/30 03:09:52;;;;;;;12.83;7.90;;;;;;;17.03;100.00;99366.16;4218053;28;20603;-70
2023/07/30 03:12:18;;;;;;;17.03;8.03;;;;;;;17.15;100.00;99374.53;4218600;28;20696;-70
2023/07/30 03:14:45;;;;;;;11.23;8.50;;;;;;;17.06;100.00;99371.22;4223194;28;21176;-74
2023/07/30 03:17:11;;;;;;;12.53;8.07;;;;;;;17.11;100.00;99371.38;4235151;28;21259;-71
2023/07/30 03:19:38;;;;;;;15.97;8.60;;;;;;;17.12;100.00;99377.72;4235154;28;20231;-71
2023/07/30 03:22:04;;;;;;;13.87;8.30;;;;;;;17.10;100.00;99375.19;4246582;28;22344;-72
2023/07/30 03:24:31;;;;;;;15.20;8.17;;;;;;;17.14;100.00;99374.75;4235427;28;20235;-70
2023/07/30 03:26:59;;;;;;;16.50;8.27;;;;;;;17.11;100.00;99376.03;4246294;28;23544;-71
2023/07/30 03:29:25;;;;;;;12.50;8.60;;;;;;;17.09;100.00;99380.88;4235126;28;20235;-70
2023/07/30 03:31:52;;;;;;;14.57;8.13;;;;;;;17.06;100.00;99370.38;4230412;28;20324;-72
2023/07/30 03:34:19;;;;;;;13.37;9.20;;;;;;;17.12;100.00;99377.72;4228067;28;20682;-71
2023/07/30 03:36:45;;;;;;;17.07;8.67;;;;;;;17.10;100.00;99383.41;4256385;28;20230;-69
2023/07/30 03:39:12;;;;;;;16.43;9.07;;;;;;;17.15;100.00;99374.53;4263030;28;20226;-72
2023/07/30 03:41:39;;;;;;;15.00;8.80;;;;;;;17.09;100.00;99372.66;4219829;28;21343;-70
2023/07/30 03:44:06;;;;;;;18.63;9.23;;;;;;;17.19;100.00;99381.25;4256979;28;21789;-72
2023/07/30 03:46:32;;;;;;;17.67;8.53;;;;;;;17.17;100.00;99375.16;4245776;28;20247;-71
2023/07/30 03:49:01;;;;;;;16.80;8.60;;;;;;;17.22;100.00;99379.97;4227972;28;20224;-71
2023/07/30 03:51:27;;;;;;;18.17;8.97;;;;;;;17.17;100.00;99377.91;4230717;28;20243;-72
2023/07/30 03:53:54;;;;;;;15.73;9.20;;;;;;;17.18;100.00;99387.78;4268651;28;20236;-71
2023/07/30 03:56:20;;;;;;;16.20;8.93;;;;;;;17.14;100.00;99393.91;4213500;28;21789;-71
2023/07/30 03:58:47;;;;;;;18.63;9.40;;;;;;;17.15;100.00;99392.84;4243675;28;20913;-70
2023/07/30 04:01:13;;;;;;;17.07;8.80;;;;;;;17.20;100.00;99382.09;4255951;28;20234;-70
2023/07/30 04:03:40;;;;;;;19.53;8.90;;;;;;;17.20;100.00;99390.28;4241779;28;20235;-73
2023/07/30 04:06:07;;;;;;;17.90;9.57;;;;;;;17.20;100.00;99379.34;4233295;28;20235;-71
2023/07/30 04:08:34;;;;;;;15.60;8.90;;;;;;;17.35;100.00;99390.03;4233480;28;20238;-71
2023/07/30 04:11:00;;;;;;;15.53;8.20;;;;;;;17.36;100.00;99400.75;4231568;28;21412;-72
2023/07/30 04:13:28;;;;;;;18.17;9.17;;;;;;;17.35;100.00;99396.31;4212564;28;21410;-71
2023/07/30 04:15:54;;;;;;;11.40;8.67;;;;;;;17.35;100.00;99399.06;4261681;28;20299;-71
2023/07/30 04:18:22;;;;;;;16.53;8.20;;;;;;;17.42;100.00;99405.34;4222204;28;20239;-71
2023/07/30 04:20:49;;;;;;;15.57;8.13;;;;;;;17.37;100.00;99409.81;4230970;28;20232;-73
2023/07/30 04:23:15;;;;;;;15.87;7.87;;;;;;;17.32;100.00;99415.94;4223688;28;20231;-72
2023/07/30 04:25:42;;;;;;;13.20;7.70;;;;;;;17.33;100.00;99419.50;4221684;28;21171;-73
2023/07/30 04:28:09;;;;;;;12.33;7.47;;;;;;;17.34;100.00;99427.47;4245912;28;22570;-72
2023/07/30 04:30:36;;;;;;;12.20;6.90;;;;;;;17.38;100.00;99436.94;4242492;28;20315;-73
2023/07/30 04:33:02;;;;;;;14.23;6.33;;;;;;;17.44;100.00;99440.72;4244023;28;20553;-75
2023/07/30 04:35:29;;;;;;;12.13;6.70;;;;;;;17.33;100.00;99441.38;4226553;28;20374;-71
2023/07/30 04:37:56;;;;;;;9.73;5.80;;;;;;;17.30;100.00;99447.25;4234878;28;24806;-72
2023/07/30 04:40:22;;;;;;;8.57;5.50;;;;;;;17.21;100.00;99447.53;4244348;28;20622;-73
2023/07/30 04:42:49;;;;;;;6.63;4.90;;;;;;;17.28;99.58;99447.47;4229319;28;20328;-71
2023/07/30 04:45:15;;;;;;;8.60;5.17;;;;;;;17.27;99.96;99451.28;4228732;28;20404;-71
2023/07/30 04:47:42;;;;;;;6.23;4.60;;;;;;;17.25;100.00;99456.13;4254695;28;21181;-71
2023/07/30 04:50:09;;;;;;;11.03;5.03;;;;;;;17.28;100.00;99452.97;4242563;28;20602;-72
2023/07/30 04:52:35;;;;;;;8.13;4.60;;;;;;;17.33;100.00;99453.16;4233587;28;20357;-71
2023/07/30 04:55:02;;;;;;;13.43;5.17;;;;;;;17.29;99.67;99457.38;4250084;28;23542;-71
2023/07/30 04:57:29;;;;;;;9.33;5.33;;;;;;;17.27;99.90;99459.47;4272326;28;20240;-72
2023/07/30 04:59:55;;;;;;;9.53;5.20;;;;;;;17.32;99.47;99459.69;4223273;28;23142;-70
2023/07/30 05:02:22;;;;;;;10.50;5.90;;;;;;;17.37;99.27;99464.53;4233230;28;20275;-72
2023/07/30 05:04:49;;;;;;;8.87;5.93;;;;;;;17.27;100.00;99474.00;4236526;28;20706;-72
2023/07/30 05:07:15;;;;;;;13.83;5.80;;;;;;;17.34;99.56;99478.63;4230169;28;20231;-72
2023/07/30 05:09:42;;;;;;;9.00;6.10;;;;;;;17.36;98.81;99473.78;4229611;28;20235;-70
2023/07/30 05:12:08;;;;;;;11.23;6.73;;;;;;;17.47;98.50;99478.56;4225337;28;20238;-71
2023/07/30 05:14:35;;;;;;;9.50;6.10;;;;;;;17.70;97.86;99480.78;4231515;28;25056;-69
2023/07/30 05:17:02;;;;;;;8.77;5.80;;;;;;;17.77;97.75;99483.47;4234588;28;20798;-70
2023/07/30 05:19:29;;;;;;;12.37;6.03;;;;;;;17.77;96.84;99493.59;4216411;28;20308;-72
2023/07/30 05:21:56;;;;;;;7.63;5.90;;;;;;;17.76;96.57;99495.47;4253289;28;20239;-70
2023/07/30 05:24:22;;;;;;;8.23;5.40;;;;;;;17.83;97.02;99493.56;4219392;28;21148;-71
2023/07/30 05:26:49;;;;;;;7.43;5.87;;;;;;;17.92;96.59;99485.94;4237029;28;20305;-71
2023/07/30 05:29:16;;;;;;;8.87;5.13;;;;;;;17.79;96.69;99499.72;4237891;28;20240;-71
2023/07/30 05:31:42;;;;;;;7.33;4.77;;;;;;;18.01;94.59;99495.59;4216270;28;20230;-71
2023/07/30 05:34:09;;;;;;;8.77;5.20;;;;;;;17.94;95.24;99497.50;4227990;28;21644;-71
2023/07/30 05:36:35;;;;;;;8.87;4.77;;;;;;;18.12;94.97;99506.91;4232760;28;20380;-70
2023/07/30 05:39:02;;;;;;;11.43;4.67;;;;;;;18.11;93.77;99503.34;4228211;28;20235;-71
2023/07/30 05:41:29;;;;;;;5.40;4.30;;;;;;;18.32;93.42;99506.78;4243166;28;23522;-72
2023/07/30 05:43:55;;;;;;;5.23;4.33;;;;;;;18.25;93.35;99506.81;4227933;28;20231;-71
2023/07/30 05:46:22;;;;;;;8.43;4.73;;;;;;;18.39;92.89;99514.97;4239873;28;20232;-71
2023/07/30 05:48:49;;;;;;;8.13;3.60;;;;;;;18.66;89.97;99518.31;4235681;28;20227;-70
2023/07/30 05:51:15;;;;;;;5.13;3.90;;;;;;;18.75;87.90;99524.38;4255256;28;22833;-68
2023/07/30 05:53:42;;;;;;;6.40;4.07;;;;;;;18.85;87.32;99519.22;4245797;28;24973;-71
2023/07/30 05:56:10;;;;;;;5.53;4.27;;;;;;;18.97;85.55;99522.09;4250302;28;20250;-68
2023/07/30 05:58:37;;;;;;;8.87;4.43;;;;;;;18.99;85.54;99520.84;4232756;28;22062;-70
2023/07/30 06:01:03;;;;;;;8.00;4.27;;;;;;;19.84;83.44;99528.56;4220288;28;20224;-70
2023/07/30 06:03:30;;;;;;;8.60;4.60;;;;;;;19.95;80.32;99528.66;4246726;28;20446;-68
2023/07/30 06:05:57;;;;;;;5.63;4.43;;;;;;;20.72;76.35;99524.38;4230872;28;21067;-71
2023/07/30 06:08:24;;;;;;;7.97;4.30;;;;;;;20.15;78.00;99524.78;4235341;28;20238;-72
2023/07/30 06:10:51;;;;;;;6.80;3.70;;;;;;;19.43;81.40;99529.03;4241350;28;20296;-72
2023/07/30 06:13:17;;;;;;;11.23;4.00;;;;;;;18.99;83.30;99531.81;4226617;28;22048;-67
2023/07/30 06:15:44;;;;;;;7.07;3.90;;;;;;;18.69;85.41;99531.59;4216418;28;22832;-70
2023/07/30 06:18:10;;;;;;;6.23;3.60;;;;;;;18.85;84.03;99530.19;4253176;28;26259;-70
2023/07/30 06:20:37;;;;;;;11.13;4.30;;;;;;;19.24;82.09;99543.81;4243241;28;20239;-70
2023/07/30 06:23:04;;;;;;;5.87;4.10;;;;;;;19.34;82.11;99541.34;4224962;28;20235;-67
2023/07/30 06:25:31;;;;;;;8.40;4.70;;;;;;;20.39;76.11;99533.94;4236362;28;20243;-73
2023/07/30 06:27:59;;;;;;;9.17;4.50;;;;;;;20.86;75.01;99537.88;4249291;28;20239;-71
2023/07/30 06:30:26;;;;;;;6.50;4.53;;;;;;;20.59;74.54;99528.13;4235333;28;23059;-71
2023/07/30 06:32:53;;;;;;;8.23;4.77;;;;;;;19.77;77.09;99540.47;4242366;28;20255;-70
2023/07/30 06:35:19;;;;;;;10.37;5.17;;;;;;;19.83;77.69;99538.69;4242981;28;20315;-71
2023/07/30 06:37:46;;;;;;;9.10;4.83;;;;;;;20.82;73.94;99540.28;4226019;28;20241;-73
2023/07/30 06:40:12;;;;;;;6.60;4.37;;;;;;;20.45;73.33;99543.16;4234240;28;20290;-72
2023/07/30 06:42:39;;;;;;;9.60;5.07;;;;;;;20.12;75.74;99544.50;4223996;28;21392;-72
2023/07/30 06:45:06;;;;;;;9.83;5.00;;;;;;;20.46;74.01;99531.09;4260537;28;21006;-73
2023/07/30 06:47:33;;;;;;;8.63;5.33;;;;;;;20.06;73.84;99531.66;4245927;28;20233;-72
2023/07/30 06:50:03;;;;;;;8.17;5.30;;;;;;;20.47;73.19;99532.78;4243178;28;20235;-70
2023/07/30 06:52:30;;;;;;;8.53;5.13;;;;;;;21.37;68.50;99539.09;4273980;28;20270;-72
2023/07/30 06:54:56;;;;;;;8.53;5.07;;;;;;;21.69;67.57;99540.63;4257982;28;20224;-71
2023/07/30 06:57:24;;;;;;;9.80;5.40;;;;;;;21.23;69.86;99545.09;4236612;28;20232;-70
2023/07/30 06:59:50;;;;;;;10.73;6.40;;;;;;;20.18;72.86;99548.19;4258998;28;20229;-70
2023/07/30 07:02:17;;;;;;;13.87;6.37;;;;;;;19.78;74.83;99552.28;4253929;28;21129;-73
2023/07/30 07:04:44;;;;;;;9.60;6.17;;;;;;;20.45;72.02;99565.16;4276729;28;20231;-70
2023/07/30 07:07:11;;;;;;;8.97;6.00;;;;;;;21.61;69.00;99547.34;4262375;28;20260;-70
2023/07/30 07:09:38;;;;;;;9.50;5.03;;;;;;;21.92;67.40;99550.75;4236543;28;20234;-69
2023/07/30 07:12:05;;;;;;;9.10;4.83;;;;;;;22.20;65.92;99546.34;4254115;28;20227;-72
2023/07/30 07:14:31;;;;;;;6.83;4.13;;;;;;;21.77;67.72;99540.25;4221113;28;20239;-70
2023/07/30 07:16:59;;;;;;;5.40;3.90;;;;;;;23.53;61.24;99551.59;4225985;28;20231;-70
2023/07/30 07:19:26;;;;;;;14.20;3.80;;;;;;;24.27;57.30;99547.56;4230581;28;20298;-71
2023/07/30 07:21:53;;;;;;;7.13;3.57;;;;;;;24.21;58.54;99554.09;4223711;28;20289;-73
2023/07/30 07:24:19;;;;;;;9.00;4.20;;;;;;;22.28;65.02;99554.19;4230007;28;20626;-77
2023/07/30 07:26:46;;;;;;;7.97;4.20;;;;;;;21.76;67.66;99555.13;4251233;28;20309;-71
2023/07/30 07:29:12;;;;;;;9.87;4.03;;;;;;;22.09;66.33;99559.06;4239397;28;20299;-73
2023/07/30 07:31:39;;;;;;;10.17;3.80;;;;;;;21.72;65.41;99553.91;4255735;28;20300;-71
2023/07/30 07:34:06;;;;;;;7.63;3.67;;;;;;;21.11;67.71;99558.84;4244614;28;21758;-71
2023/07/30 07:36:35;;;;;;;6.73;2.83;;;;;;;22.98;61.69;99558.75;4246116;28;23009;-69
2023/07/30 07:39:01;;;;;;;6.07;2.80;;;;;;;24.11;57.41;99560.38;4240629;28;20231;-68
2023/07/30 07:41:28;;;;;;;8.27;3.50;;;;;;;23.70;60.03;99549.63;4238072;28;20356;-69
2023/07/30 07:43:55;;;;;;;6.07;3.40;;;;;;;23.87;58.15;99560.59;4219806;28;20235;-70
2023/07/30 07:46:22;;;;;;;6.20;3.20;;;;;;;22.82;61.39;99557.66;4215487;28;20351;-70
2023/07/30 07:48:48;;;;;;;8.50;3.37;;;;;;;22.09;64.33;99548.03;4229610;28;20261;-70
2023/07/30 07:51:15;;;;;;;5.10;2.90;;;;;;;22.17;64.93;99546.84;4236943;28;22042;-69
2023/07/30 07:53:41;;;;;;;6.43;3.50;;;;;;;21.96;65.78;99542.81;4237056;28;20234;-71
2023/07/30 07:56:08;;;;;;;5.83;3.30;;;;;;;21.90;65.49;99550.19;4235042;28;20259;-69
2023/07/30 07:58:35;;;;;;;5.97;3.80;;;;;;;22.11;65.10;99550.56;4236181;28;20226;-69
2023/07/30 08:01:02;;;;;;;5.63;3.27;;;;;;;22.37;64.47;99551.91;4232329;28;20242;-67
2023/07/30 08:03:29;;;;;;;7.50;4.10;;;;;;;22.11;64.88;99551.41;4226280;28;20858;-68
2023/07/30 08:05:55;;;;;;;7.40;4.20;;;;;;;22.23;63.96;99551.34;4229498;28;20235;-71
2023/07/30 08:08:24;;;;;;;7.67;3.50;;;;;;;22.09;64.98;99567.34;4224263;28;20590;-70
2023/07/30 08:10:52;;;;;;;6.57;3.47;;;;;;;21.81;65.08;99557.97;4213069;28;21806;-72
2023/07/30 08:13:20;;;;;;;9.10;3.80;;;;;;;22.17;63.97;99577.97;4250855;28;20539;-70
2023/07/30 08:15:46;;;;;;;5.87;3.10;;;;;;;22.44;61.60;99569.16;4232574;28;22094;-70
2023/07/30 08:18:13;;;;;;;5.60;3.00;;;;;;;21.99;63.74;99564.41;4254465;28;20356;-70
2023/07/30 08:20:39;;;;;;;8.67;3.20;;;;;;;21.87;65.26;99563.56;4251543;28;20234;-69
2023/07/30 08:23:06;;;;;;;5.73;3.00;;;;;;;22.14;64.94;99567.47;4258755;28;20694;-69
2023/07/30 08:25:33;;;;;;;4.63;2.73;;;;;;;22.82;61.44;99557.66;4230165;28;20352;-70
2023/07/30 08:27:59;;;;;;;6.67;3.33;;;;;;;22.23;63.50;99564.31;4249351;28;21239;-71
2023/07/30 08:30:27;;;;;;;5.67;2.83;;;;;;;22.30;63.06;99563.06;4239831;28;22045;-71
2023/07/30 08:32:54;;;;;;;6.13;2.93;;;;;;;22.46;63.08;99564.25;4259394;28;20242;-70
2023/07/30 08:35:20;;;;;;;5.07;2.90;;;;;;;22.79;61.02;99565.34;4254226;28;20227;-71
2023/07/30 08:37:47;;;;;;;5.03;2.57;;;;;;;22.59;60.20;99571.34;4235837;28;20234;-70
2023/07/30 08:40:14;;;;;;;5.03;2.57;;;;;;;22.68;61.59;99573.69;4273635;28;20241;-70
2023/07/30 08:42:43;;;;;;;5.33;3.03;;;;;;;22.76;62.73;99567.78;4249597;28;20365;-70
2023/07/30 08:45:10;;;;;;;6.30;3.03;;;;;;;22.43;63.73;99566.66;4229173;28;20366;-73
2023/07/30 08:47:39;;;;;;;7.03;3.43;;;;;;;21.84;65.84;99576.78;4260606;28;20883;-72
2023/07/30 08:50:06;;;;;;;6.03;3.40;;;;;;;22.26;64.38;99569.31;4224048;28;20239;-69
2023/07/30 08:52:35;;;;;;;8.60;3.23;;;;;;;22.38;64.28;99569.28;4219018;28;20238;-68
2023/07/30 08:55:03;;;;;;;5.33;3.10;;;;;;;22.38;65.00;99567.38;4237154;28;23237;-69
2023/07/30 08:57:30;;;;;;;8.20;2.90;;;;;;;22.40;65.25;99570.72;4248631;28;20669;-68
2023/07/30 09:00:08;;;;;;;6.20;3.03;;;;;;;22.24;63.99;99577.84;4228281;28;20235;-71
2023/07/30 09:02:43;;;;;;;4.43;2.50;;;;;;;22.87;62.95;99574.31;4224901;28;20246;-69
2023/07/30 09:05:10;;;;;;;4.53;2.70;;;;;;;23.11;61.80;99564.78;4223496;28;20235;-71
2023/07/30 09:07:37;;;;;;;4.50;2.93;;;;;;;22.82;62.47;99574.22;4220350;28;20591;-68
2023/07/30 09:10:04;;;;;;;6.13;2.83;;;;;;;22.50;62.89;99581.13;4222553;28;20231;-68
2023/07/30 09:12:34;;;;;;;6.67;2.87;;;;;;;22.58;63.67;99582.63;4242651;28;20610;-70
2023/07/30 09:15:05;;;;;;;4.77;2.70;;;;;;;23.25;60.74;99575.50;4221994;28;20301;-71
2023/07/30 09:17:32;;;;;;;4.03;2.80;;;;;;;23.08;60.98;99568.03;4222440;28;21068;-69
2023/07/30 09:20:00;;;;;;;8.40;2.80;;;;;;;23.11;61.70;99577.75;4249535;28;21494;-69
2023/07/30 09:22:29;;;;;;;3.30;2.50;;;;;;;22.86;61.61;99572.63;4216417;28;20657;-66
2023/07/30 09:24:56;;;;;;;5.20;3.10;;;;;;;22.10;64.92;99574.53;4245644;28;21147;-71
2023/07/30 09:27:26;;;;;;;5.93;3.50;;;;;;;22.06;66.22;99589.91;4212130;28;20326;-68
2023/07/30 09:29:54;;;;;;;5.80;3.17;;;;;;;22.59;65.58;99581.56;4234404;28;21380;-68
2023/07/30 09:32:26;;;;;;;3.43;2.73;;;;;;;23.15;61.30;99576.16;4268637;28;20239;-68
2023/07/30 09:34:52;;;;;;;4.00;2.87;;;;;;;23.41;60.04;99582.09;4222546;28;20242;-70
2023/07/30 09:37:19;;;;;;;3.97;2.90;;;;;;;23.15;60.71;99580.84;4256730;28;20979;-68
2023/07/30 09:39:48;;;;;;;5.20;2.83;;;;;;;23.01;61.60;99591.38;4223174;28;20310;-68
2023/07/30 09:42:14;;;;;;;4.23;3.00;;;;;;;22.97;62.40;99587.44;4222577;28;20231;-68
2023/07/30 09:44:41;;;;;;;3.73;2.80;;;;;;;23.09;62.57;99591.78;4236494;28;20538;-72
2023/07/30 09:47:10;;;;;;;5.70;2.73;;;;;;;23.29;60.85;99589.63;4230568;28;21991;-70
2023/07/30 09:49:38;;;;;;;4.93;2.70;;;;;;;23.39;59.69;99593.38;4249782;28;20222;-73
2023/07/30 09:52:05;;;;;;;3.63;2.57;;;;;;;23.35;58.89;99589.47;4272814;28;20242;-72
2023/07/30 09:54:32;;;;;;;4.47;2.40;;;;;;;23.00;59.72;99592.47;4247513;28;20234;-68
2023/07/30 09:56:59;;;;;;;3.93;2.80;;;;;;;23.26;59.73;99583.53;4233803;28;20242;-69
2023/07/30 09:59:27;;;;;;;4.10;2.83;;;;;;;23.46;60.59;99582.16;4238276;28;22801;-72
2023/07/30 10:01:55;;;;;;;6.40;3.10;;;;;;;23.29;59.35;99582.19;4243382;28;20238;-71
2023/07/30 10:04:23;;;;;;;5.53;2.80;;;;;;;23.31;60.61;99581.94;4227539;28;20234;-69
2023/07/30 10:07:02;;;;;;;4.10;2.87;;;;;;;23.41;60.51;99591.22;4215565;28;20230;-69
2023/07/30 10:09:34;;;;;;;5.17;2.60;;;;;;;23.44;59.79;99589.03;4236742;28;21133;-68
2023/07/30 10:12:01;;;;;;;6.00;3.07;;;;;;;23.78;59.67;99578.75;4240159;28;20459;-69
2023/07/30 10:14:28;;;;;;;5.17;2.80;;;;;;;23.42;58.43;99581.00;4225682;28;20227;-69
2023/07/30 10:16:57;;;;;;;3.97;2.70;;;;;;;23.84;57.98;99577.72;4243767;28;20451;-68
2023/07/30 10:19:28;;;;;;;3.70;2.87;;;;;;;23.78;58.11;99581.50;4255255;28;20601;-69
2023/07/30 10:22:01;;;;;;;3.47;2.73;;;;;;;23.38;60.75;99586.19;4236947;28;21607;-69
2023/07/30 10:24:28;;;;;;;5.73;2.73;;;;;;;23.68;59.15;99579.41;4253112;28;20581;-68
2023/07/30 10:26:57;;;;;;;9.50;3.00;;;;;;;23.59;58.47;99586.50;4231118;28;22807;-71
2023/07/30 10:29:24;;;;;;;5.50;3.17;;;;;;;23.57;59.85;99569.34;4261074;28;20245;-70
2023/07/30 10:31:52;;;;;;;5.47;3.63;;;;;;;23.92;57.85;99570.06;4258139;28;20246;-71
2023/07/30 10:34:19;;;;;;;4.27;2.90;;;;;;;23.67;58.54;99571.41;4250238;28;20426;-69
2023/07/30 10:36:52;;;;;;;3.77;2.73;;;;;;;23.55;59.51;99577.03;4246031;28;22575;-72
2023/07/30 10:39:26;;;;;;;9.00;3.43;;;;;;;23.83;56.90;99572.47;4253406;28;20238;-70
2023/07/30 10:41:56;;;;;;;6.00;3.07;;;;;;;23.62;56.62;99572.16;4229805;28;20408;-69
2023/07/30 10:44:27;;;;;;;4.13;2.93;;;;;;;23.58;55.98;99568.25;4233129;28;22545;-70
2023/07/30 10:46:55;;;;;;;3.77;2.80;;;;;;;23.92;54.91;99559.00;4236824;28;20268;-68
2023/07/30 10:49:22;;;;;;;4.57;3.03;;;;;;;23.81;57.35;99566.34;4231438;28;20314;-70
2023/07/30 10:51:54;;;;;;;5.03;3.03;;;;;;;23.76;58.11;99558.81;4231132;28;20227;-69
2023/07/30 10:54:21;;;;;;;9.10;3.10;;;;;;;23.73;57.16;99562.94;4243194;28;20239;-70
2023/07/30 10:56:48;;;;;;;3.97;2.90;;;;;;;24.12;56.71;99550.16;4255212;28;21754;-70
2023/07/30 10:59:15;;;;;;;6.70;3.50;;;;;;;24.49;56.73;99553.03;4237313;28;20948;-66
2023/07/30 11:01:43;;;;;;;4.07;2.90;;;;;;;25.07;55.13;99551.63;4248932;28;20277;-70
2023/07/30 11:04:13;;;;;;;3.57;2.67;;;;;;;24.91;54.61;99545.97;4261542;28;20230;-70
2023/07/30 11:06:49;;;;;;;7.73;2.93;;;;;;;25.05;54.79;99545.50;4230463;28;20791;-70
2023/07/30 11:09:22;;;;;;;7.73;2.97;;;;;;;25.12;54.37;99544.19;4240846;28;22260;-68
2023/07/30 11:11:50;;;;;;;6.00;2.63;;;;;;;25.44;52.86;99535.00;4254698;28;21198;-67
2023/07/30 11:14:19;;;;;;;4.77;3.03;;;;;;;25.00;53.11;99546.31;4255647;28;21826;-72
2023/07/30 11:16:48;;;;;;;4.50;3.00;;;;;;;24.98;53.97;99540.22;4226018;28;23457;-71
2023/07/30 11:19:15;;;;;;;5.67;3.10;;;;;;;24.82;53.00;99536.47;4260517;28;21262;-71
2023/07/30 11:21:49;;;;;;;4.40;2.80;;;;;;;25.11;52.80;99541.69;4237325;28;20442;-72
2023/07/30 11:24:20;;;;;;;3.10;2.57;;;;;;;25.13;50.70;99542.22;4234349;28;20329;-72
2023/07/30 11:26:58;;;;;;;5.73;2.90;;;;;;;25.52;51.88;99539.19;4228657;28;20241;-70